sensor_id;sensor_type;location;lat;lon;timestamp;P1;durP1;ratioP1;P2;durP2;ratioP2
28822;SDS011;15961;54.678;9.110;2022-11-14T00:02:08;14.98;;;10.15;;
28822;SDS011;15961;54.678;9.110;2022-11-14T00:04:34;16.75;;;10.18;;
28822;SDS011;15961;54.678;9.110;2022-11-14T00:06:59;19.63;;;11.55;;
28822;SDS011;15961;54.678;9.110;2022-11-14T00:09:25;20.40;;;11.90;;
28822;SDS011;15961;54.678;9.110;2022-11-14T00:11:52;17.35;;;11.10;;
28822;SDS011;15961;54.678;9.110;2022-11-14T00:14:18;19.05;;;13.02;;
28822;SDS011;15961;54.678;9.110;2022-11-14T00:16:44;20.27;;;13.30;;
28822;SDS011;15961;54.678;9.110;2022-11-14T00:19:10;20.92;;;13.63;;
28822;SDS011;15961;54.678;9.110;2022-11-14T00:21:36;20.42;;;13.32;;
28822;SDS011;15961;54.678;9.110;2022-11-14T00:24:01;24.27;;;15.60;;
28822;SDS011;15961;54.678;9.110;2022-11-14T00:26:27;24.02;;;15.05;;
28822;SDS011;15961;54.678;9.110;2022-11-14T00:28:53;25.30;;;16.25;;
28822;SDS011;15961;54.678;9.110;2022-11-14T00:31:19;26.85;;;14.52;;
28822;SDS011;15961;54.678;9.110;2022-11-14T00:33:45;24.38;;;16.25;;
28822;SDS011;15961;54.678;9.110;2022-11-14T00:36:10;27.38;;;15.98;;
28822;SDS011;15961;54.678;9.110;2022-11-14T00:38:36;24.67;;;15.73;;
28822;SDS011;15961;54.678;9.110;2022-11-14T00:41:01;25.55;;;15.55;;
28822;SDS011;15961;54.678;9.110;2022-11-14T00:43:27;27.73;;;16.83;;
28822;SDS011;15961;54.678;9.110;2022-11-14T00:45:52;26.13;;;15.75;;
28822;SDS011;15961;54.678;9.110;2022-11-14T00:48:18;26.98;;;18.30;;
28822;SDS011;15961;54.678;9.110;2022-11-14T00:50:44;29.05;;;17.77;;
28822;SDS011;15961;54.678;9.110;2022-11-14T00:53:09;30.63;;;17.60;;
28822;SDS011;15961;54.678;9.110;2022-11-14T00:55:35;34.08;;;19.40;;
28822;SDS011;15961;54.678;9.110;2022-11-14T00:58:01;30.17;;;19.33;;
28822;SDS011;15961;54.678;9.110;2022-11-14T01:00:26;31.40;;;17.88;;
28822;SDS011;15961;54.678;9.110;2022-11-14T01:02:52;30.13;;;18.67;;
28822;SDS011;15961;54.678;9.110;2022-11-14T01:05:20;29.38;;;18.23;;
28822;SDS011;15961;54.678;9.110;2022-11-14T01:07:48;28.08;;;18.30;;
28822;SDS011;15961;54.678;9.110;2022-11-14T01:10:14;29.92;;;18.75;;
28822;SDS011;15961;54.678;9.110;2022-11-14T01:12:40;26.83;;;17.10;;
28822;SDS011;15961;54.678;9.110;2022-11-14T01:15:06;28.23;;;17.90;;
28822;SDS011;15961;54.678;9.110;2022-11-14T01:17:32;27.08;;;17.92;;
28822;SDS011;15961;54.678;9.110;2022-11-14T01:19:58;29.10;;;18.80;;
28822;SDS011;15961;54.678;9.110;2022-11-14T01:22:23;28.63;;;19.48;;
28822;SDS011;15961;54.678;9.110;2022-11-14T01:24:49;28.95;;;18.83;;
28822;SDS011;15961;54.678;9.110;2022-11-14T01:27:14;30.05;;;18.70;;
28822;SDS011;15961;54.678;9.110;2022-11-14T01:29:40;31.98;;;20.27;;
28822;SDS011;15961;54.678;9.110;2022-11-14T01:32:05;37.30;;;19.77;;
28822;SDS011;15961;54.678;9.110;2022-11-14T01:34:31;27.95;;;19.83;;
28822;SDS011;15961;54.678;9.110;2022-11-14T01:36:56;31.23;;;19.35;;
28822;SDS011;15961;54.678;9.110;2022-11-14T01:39:22;28.98;;;18.88;;
28822;SDS011;15961;54.678;9.110;2022-11-14T01:41:49;28.00;;;18.60;;
28822;SDS011;15961;54.678;9.110;2022-11-14T01:44:15;26.45;;;18.67;;
28822;SDS011;15961;54.678;9.110;2022-11-14T01:47:01;31.52;;;20.25;;
28822;SDS011;15961;54.678;9.110;2022-11-14T01:49:34;30.17;;;20.05;;
28822;SDS011;15961;54.678;9.110;2022-11-14T01:52:03;28.35;;;18.67;;
28822;SDS011;15961;54.678;9.110;2022-11-14T01:54:35;26.20;;;18.60;;
28822;SDS011;15961;54.678;9.110;2022-11-14T01:57:02;33.20;;;21.92;;
28822;SDS011;15961;54.678;9.110;2022-11-14T01:59:32;30.05;;;20.77;;
28822;SDS011;15961;54.678;9.110;2022-11-14T02:02:19;29.20;;;20.38;;
28822;SDS011;15961;54.678;9.110;2022-11-14T02:04:52;34.03;;;20.90;;
28822;SDS011;15961;54.678;9.110;2022-11-14T02:07:27;29.60;;;19.45;;
28822;SDS011;15961;54.678;9.110;2022-11-14T02:09:56;33.97;;;21.83;;
28822;SDS011;15961;54.678;9.110;2022-11-14T02:12:25;37.90;;;22.85;;
28822;SDS011;15961;54.678;9.110;2022-11-14T02:14:51;35.88;;;23.80;;
28822;SDS011;15961;54.678;9.110;2022-11-14T02:17:19;39.08;;;24.88;;
28822;SDS011;15961;54.678;9.110;2022-11-14T02:19:49;33.92;;;24.00;;
28822;SDS011;15961;54.678;9.110;2022-11-14T02:22:19;37.42;;;25.67;;
28822;SDS011;15961;54.678;9.110;2022-11-14T02:24:44;37.78;;;24.42;;
28822;SDS011;15961;54.678;9.110;2022-11-14T02:27:10;34.78;;;23.10;;
28822;SDS011;15961;54.678;9.110;2022-11-14T02:29:37;33.63;;;21.90;;
28822;SDS011;15961;54.678;9.110;2022-11-14T02:32:03;35.95;;;24.92;;
28822;SDS011;15961;54.678;9.110;2022-11-14T02:34:29;39.10;;;24.25;;
28822;SDS011;15961;54.678;9.110;2022-11-14T02:36:55;37.40;;;24.00;;
28822;SDS011;15961;54.678;9.110;2022-11-14T02:39:21;35.10;;;23.35;;
28822;SDS011;15961;54.678;9.110;2022-11-14T02:41:48;36.00;;;24.70;;
28822;SDS011;15961;54.678;9.110;2022-11-14T02:44:14;38.20;;;25.83;;
28822;SDS011;15961;54.678;9.110;2022-11-14T02:46:40;37.40;;;25.30;;
28822;SDS011;15961;54.678;9.110;2022-11-14T02:49:05;37.67;;;26.25;;
28822;SDS011;15961;54.678;9.110;2022-11-14T02:51:31;40.63;;;24.88;;
28822;SDS011;15961;54.678;9.110;2022-11-14T02:53:56;43.92;;;25.02;;
28822;SDS011;15961;54.678;9.110;2022-11-14T02:56:22;38.58;;;25.25;;
28822;SDS011;15961;54.678;9.110;2022-11-14T02:58:47;39.33;;;25.70;;
28822;SDS011;15961;54.678;9.110;2022-11-14T03:01:13;40.50;;;26.55;;
28822;SDS011;15961;54.678;9.110;2022-11-14T03:03:38;38.90;;;26.50;;
28822;SDS011;15961;54.678;9.110;2022-11-14T03:06:04;50.35;;;28.85;;
28822;SDS011;15961;54.678;9.110;2022-11-14T03:08:29;42.83;;;27.85;;
28822;SDS011;15961;54.678;9.110;2022-11-14T03:10:55;38.53;;;26.30;;
28822;SDS011;15961;54.678;9.110;2022-11-14T03:13:27;44.72;;;29.23;;
28822;SDS011;15961;54.678;9.110;2022-11-14T03:15:54;42.63;;;27.35;;
28822;SDS011;15961;54.678;9.110;2022-11-14T03:18:20;46.58;;;28.83;;
28822;SDS011;15961;54.678;9.110;2022-11-14T03:20:46;47.75;;;31.45;;
28822;SDS011;15961;54.678;9.110;2022-11-14T03:23:11;50.22;;;33.83;;
28822;SDS011;15961;54.678;9.110;2022-11-14T03:25:37;55.45;;;34.25;;
28822;SDS011;15961;54.678;9.110;2022-11-14T03:28:02;54.15;;;35.30;;
28822;SDS011;15961;54.678;9.110;2022-11-14T03:30:28;54.38;;;33.45;;
28822;SDS011;15961;54.678;9.110;2022-11-14T03:32:55;60.72;;;35.03;;
28822;SDS011;15961;54.678;9.110;2022-11-14T03:35:21;53.78;;;34.33;;
28822;SDS011;15961;54.678;9.110;2022-11-14T03:37:46;59.40;;;35.55;;
28822;SDS011;15961;54.678;9.110;2022-11-14T03:40:12;58.10;;;34.90;;
28822;SDS011;15961;54.678;9.110;2022-11-14T03:42:37;58.05;;;35.75;;
28822;SDS011;15961;54.678;9.110;2022-11-14T03:45:03;59.30;;;36.75;;
28822;SDS011;15961;54.678;9.110;2022-11-14T03:47:29;61.58;;;37.78;;
28822;SDS011;15961;54.678;9.110;2022-11-14T03:49:54;61.85;;;37.70;;
28822;SDS011;15961;54.678;9.110;2022-11-14T03:52:20;69.63;;;37.33;;
28822;SDS011;15961;54.678;9.110;2022-11-14T03:54:45;65.75;;;39.55;;
28822;SDS011;15961;54.678;9.110;2022-11-14T03:57:11;67.80;;;40.60;;
28822;SDS011;15961;54.678;9.110;2022-11-14T03:59:36;70.43;;;42.10;;
28822;SDS011;15961;54.678;9.110;2022-11-14T04:02:02;64.72;;;37.67;;
28822;SDS011;15961;54.678;9.110;2022-11-14T04:04:27;67.75;;;40.50;;
28822;SDS011;15961;54.678;9.110;2022-11-14T04:06:53;70.57;;;39.75;;
28822;SDS011;15961;54.678;9.110;2022-11-14T04:09:18;65.65;;;38.80;;
28822;SDS011;15961;54.678;9.110;2022-11-14T04:11:44;70.65;;;40.47;;
28822;SDS011;15961;54.678;9.110;2022-11-14T04:14:09;65.07;;;39.63;;
28822;SDS011;15961;54.678;9.110;2022-11-14T04:16:35;60.92;;;37.92;;
28822;SDS011;15961;54.678;9.110;2022-11-14T04:19:00;69.70;;;39.15;;
28822;SDS011;15961;54.678;9.110;2022-11-14T04:21:26;64.97;;;39.45;;
28822;SDS011;15961;54.678;9.110;2022-11-14T04:23:52;72.22;;;41.33;;
28822;SDS011;15961;54.678;9.110;2022-11-14T04:26:17;69.35;;;39.65;;
28822;SDS011;15961;54.678;9.110;2022-11-14T04:28:43;70.95;;;41.28;;
28822;SDS011;15961;54.678;9.110;2022-11-14T04:31:08;70.97;;;40.05;;
28822;SDS011;15961;54.678;9.110;2022-11-14T04:33:34;75.15;;;42.22;;
28822;SDS011;15961;54.678;9.110;2022-11-14T04:36:00;77.50;;;42.60;;
28822;SDS011;15961;54.678;9.110;2022-11-14T04:38:25;71.32;;;41.72;;
28822;SDS011;15961;54.678;9.110;2022-11-14T04:40:51;70.97;;;40.50;;
28822;SDS011;15961;54.678;9.110;2022-11-14T04:43:17;72.90;;;41.30;;
28822;SDS011;15961;54.678;9.110;2022-11-14T04:45:44;82.00;;;43.90;;
28822;SDS011;15961;54.678;9.110;2022-11-14T04:48:10;74.05;;;40.95;;
28822;SDS011;15961;54.678;9.110;2022-11-14T04:53:04;72.30;;;40.65;;
28822;SDS011;15961;54.678;9.110;2022-11-14T04:55:30;64.60;;;39.60;;
28822;SDS011;15961;54.678;9.110;2022-11-14T04:57:56;75.53;;;41.17;;
28822;SDS011;15961;54.678;9.110;2022-11-14T05:00:22;79.07;;;40.25;;
28822;SDS011;15961;54.678;9.110;2022-11-14T05:02:49;74.43;;;40.90;;
28822;SDS011;15961;54.678;9.110;2022-11-14T05:05:15;69.47;;;39.45;;
28822;SDS011;15961;54.678;9.110;2022-11-14T05:07:40;70.53;;;41.28;;
28822;SDS011;15961;54.678;9.110;2022-11-14T05:10:06;76.38;;;41.50;;
28822;SDS011;15961;54.678;9.110;2022-11-14T05:12:33;73.45;;;41.83;;
28822;SDS011;15961;54.678;9.110;2022-11-14T05:14:59;69.32;;;38.67;;
28822;SDS011;15961;54.678;9.110;2022-11-14T05:17:24;68.25;;;39.03;;
28822;SDS011;15961;54.678;9.110;2022-11-14T05:19:51;77.07;;;40.38;;
28822;SDS011;15961;54.678;9.110;2022-11-14T05:22:17;71.90;;;38.67;;
28822;SDS011;15961;54.678;9.110;2022-11-14T05:24:42;74.82;;;39.03;;
28822;SDS011;15961;54.678;9.110;2022-11-14T05:27:08;79.43;;;39.13;;
28822;SDS011;15961;54.678;9.110;2022-11-14T05:29:33;75.22;;;40.20;;
28822;SDS011;15961;54.678;9.110;2022-11-14T05:31:59;67.35;;;38.58;;
28822;SDS011;15961;54.678;9.110;2022-11-14T05:34:25;73.55;;;39.38;;
28822;SDS011;15961;54.678;9.110;2022-11-14T05:36:50;76.25;;;40.28;;
28822;SDS011;15961;54.678;9.110;2022-11-14T05:39:16;72.68;;;39.47;;
28822;SDS011;15961;54.678;9.110;2022-11-14T05:41:42;66.32;;;38.60;;
28822;SDS011;15961;54.678;9.110;2022-11-14T05:44:07;72.00;;;38.92;;
28822;SDS011;15961;54.678;9.110;2022-11-14T05:46:33;64.38;;;37.67;;
28822;SDS011;15961;54.678;9.110;2022-11-14T05:48:58;67.43;;;38.97;;
28822;SDS011;15961;54.678;9.110;2022-11-14T05:51:24;72.63;;;39.90;;
28822;SDS011;15961;54.678;9.110;2022-11-14T05:53:49;67.38;;;37.60;;
28822;SDS011;15961;54.678;9.110;2022-11-14T05:56:15;62.65;;;36.15;;
28822;SDS011;15961;54.678;9.110;2022-11-14T05:58:40;65.07;;;36.80;;
28822;SDS011;15961;54.678;9.110;2022-11-14T06:01:07;67.20;;;38.45;;
28822;SDS011;15961;54.678;9.110;2022-11-14T06:03:36;64.50;;;38.65;;
28822;SDS011;15961;54.678;9.110;2022-11-14T06:06:04;65.32;;;39.15;;
28822;SDS011;15961;54.678;9.110;2022-11-14T06:08:31;68.30;;;37.33;;
28822;SDS011;15961;54.678;9.110;2022-11-14T06:11:04;66.68;;;36.90;;
28822;SDS011;15961;54.678;9.110;2022-11-14T06:13:34;64.82;;;37.55;;
28822;SDS011;15961;54.678;9.110;2022-11-14T06:16:01;65.18;;;37.30;;
28822;SDS011;15961;54.678;9.110;2022-11-14T06:18:28;72.65;;;39.42;;
28822;SDS011;15961;54.678;9.110;2022-11-14T06:21:01;68.55;;;38.70;;
28822;SDS011;15961;54.678;9.110;2022-11-14T06:23:47;61.45;;;35.58;;
28822;SDS011;15961;54.678;9.110;2022-11-14T06:28:45;72.55;;;36.75;;
28822;SDS011;15961;54.678;9.110;2022-11-14T06:31:11;68.78;;;36.40;;
28822;SDS011;15961;54.678;9.110;2022-11-14T06:33:37;71.90;;;36.55;;
28822;SDS011;15961;54.678;9.110;2022-11-14T06:36:03;61.75;;;36.25;;
28822;SDS011;15961;54.678;9.110;2022-11-14T06:38:30;73.43;;;38.65;;
28822;SDS011;15961;54.678;9.110;2022-11-14T06:41:00;61.95;;;36.78;;
28822;SDS011;15961;54.678;9.110;2022-11-14T06:43:27;63.13;;;36.70;;
28822;SDS011;15961;54.678;9.110;2022-11-14T06:45:53;65.47;;;35.08;;
28822;SDS011;15961;54.678;9.110;2022-11-14T06:48:19;62.50;;;35.63;;
28822;SDS011;15961;54.678;9.110;2022-11-14T06:50:50;60.47;;;36.25;;
28822;SDS011;15961;54.678;9.110;2022-11-14T06:53:19;58.70;;;34.70;;
28822;SDS011;15961;54.678;9.110;2022-11-14T06:58:36;63.65;;;35.92;;
28822;SDS011;15961;54.678;9.110;2022-11-14T07:01:13;68.65;;;36.78;;
28822;SDS011;15961;54.678;9.110;2022-11-14T07:03:43;63.75;;;35.03;;
28822;SDS011;15961;54.678;9.110;2022-11-14T07:06:10;62.58;;;34.92;;
28822;SDS011;15961;54.678;9.110;2022-11-14T07:08:37;69.53;;;34.88;;
28822;SDS011;15961;54.678;9.110;2022-11-14T07:11:04;63.47;;;35.65;;
28822;SDS011;15961;54.678;9.110;2022-11-14T07:13:34;68.50;;;37.70;;
28822;SDS011;15961;54.678;9.110;2022-11-14T07:16:00;61.58;;;35.60;;
28822;SDS011;15961;54.678;9.110;2022-11-14T07:18:30;57.80;;;34.50;;
28822;SDS011;15961;54.678;9.110;2022-11-14T07:21:00;67.05;;;38.05;;
28822;SDS011;15961;54.678;9.110;2022-11-14T07:23:29;60.15;;;34.08;;
28822;SDS011;15961;54.678;9.110;2022-11-14T07:25:58;61.95;;;35.67;;
28822;SDS011;15961;54.678;9.110;2022-11-14T07:28:25;68.32;;;36.30;;
28822;SDS011;15961;54.678;9.110;2022-11-14T07:30:51;59.38;;;35.88;;
28822;SDS011;15961;54.678;9.110;2022-11-14T07:33:17;56.72;;;34.13;;
28822;SDS011;15961;54.678;9.110;2022-11-14T07:35:42;58.25;;;32.65;;
28822;SDS011;15961;54.678;9.110;2022-11-14T07:38:08;58.88;;;33.60;;
28822;SDS011;15961;54.678;9.110;2022-11-14T07:40:34;51.10;;;31.42;;
28822;SDS011;15961;54.678;9.110;2022-11-14T07:43:00;55.58;;;32.63;;
28822;SDS011;15961;54.678;9.110;2022-11-14T07:45:26;60.58;;;33.53;;
28822;SDS011;15961;54.678;9.110;2022-11-14T07:47:56;56.50;;;33.58;;
28822;SDS011;15961;54.678;9.110;2022-11-14T07:50:23;54.28;;;31.92;;
28822;SDS011;15961;54.678;9.110;2022-11-14T07:52:50;52.40;;;32.40;;
28822;SDS011;15961;54.678;9.110;2022-11-14T07:55:16;60.42;;;32.28;;
28822;SDS011;15961;54.678;9.110;2022-11-14T07:57:42;49.88;;;30.05;;
28822;SDS011;15961;54.678;9.110;2022-11-14T08:00:08;50.08;;;31.08;;
28822;SDS011;15961;54.678;9.110;2022-11-14T08:02:34;51.65;;;31.63;;
28822;SDS011;15961;54.678;9.110;2022-11-14T08:05:00;56.33;;;33.70;;
28822;SDS011;15961;54.678;9.110;2022-11-14T08:07:26;52.10;;;32.28;;
28822;SDS011;15961;54.678;9.110;2022-11-14T08:09:51;51.75;;;30.67;;
28822;SDS011;15961;54.678;9.110;2022-11-14T08:12:17;50.13;;;31.58;;
28822;SDS011;15961;54.678;9.110;2022-11-14T08:14:42;59.67;;;32.13;;
28822;SDS011;15961;54.678;9.110;2022-11-14T08:17:08;56.35;;;33.38;;
28822;SDS011;15961;54.678;9.110;2022-11-14T08:19:33;55.72;;;33.15;;
28822;SDS011;15961;54.678;9.110;2022-11-14T08:21:59;61.05;;;33.33;;
28822;SDS011;15961;54.678;9.110;2022-11-14T08:24:24;51.75;;;32.78;;
28822;SDS011;15961;54.678;9.110;2022-11-14T08:26:50;57.88;;;33.97;;
28822;SDS011;15961;54.678;9.110;2022-11-14T08:29:15;52.42;;;33.53;;
28822;SDS011;15961;54.678;9.110;2022-11-14T08:31:41;56.10;;;33.45;;
28822;SDS011;15961;54.678;9.110;2022-11-14T08:34:06;57.33;;;33.95;;
28822;SDS011;15961;54.678;9.110;2022-11-14T08:36:32;58.70;;;34.20;;
28822;SDS011;15961;54.678;9.110;2022-11-14T08:38:57;53.95;;;33.45;;
28822;SDS011;15961;54.678;9.110;2022-11-14T08:41:23;56.95;;;32.45;;
28822;SDS011;15961;54.678;9.110;2022-11-14T08:43:48;55.58;;;33.58;;
28822;SDS011;15961;54.678;9.110;2022-11-14T08:46:14;60.47;;;33.28;;
28822;SDS011;15961;54.678;9.110;2022-11-14T08:48:40;57.97;;;33.72;;
28822;SDS011;15961;54.678;9.110;2022-11-14T08:51:05;64.18;;;36.30;;
28822;SDS011;15961;54.678;9.110;2022-11-14T08:53:31;55.03;;;34.05;;
28822;SDS011;15961;54.678;9.110;2022-11-14T08:55:58;58.38;;;34.95;;
28822;SDS011;15961;54.678;9.110;2022-11-14T08:58:25;56.25;;;33.53;;
28822;SDS011;15961;54.678;9.110;2022-11-14T09:00:58;59.45;;;33.80;;
28822;SDS011;15961;54.678;9.110;2022-11-14T09:03:28;53.50;;;33.38;;
28822;SDS011;15961;54.678;9.110;2022-11-14T09:05:53;53.70;;;31.52;;
28822;SDS011;15961;54.678;9.110;2022-11-14T09:08:19;52.83;;;31.55;;
28822;SDS011;15961;54.678;9.110;2022-11-14T09:10:45;57.00;;;31.88;;
28822;SDS011;15961;54.678;9.110;2022-11-14T09:13:10;55.33;;;33.08;;
28822;SDS011;15961;54.678;9.110;2022-11-14T09:15:36;54.15;;;32.45;;
28822;SDS011;15961;54.678;9.110;2022-11-14T09:18:01;53.35;;;32.65;;
28822;SDS011;15961;54.678;9.110;2022-11-14T09:20:27;54.35;;;31.63;;
28822;SDS011;15961;54.678;9.110;2022-11-14T09:22:56;54.17;;;33.42;;
28822;SDS011;15961;54.678;9.110;2022-11-14T09:25:22;51.42;;;31.40;;
28822;SDS011;15961;54.678;9.110;2022-11-14T09:27:48;60.40;;;33.22;;
28822;SDS011;15961;54.678;9.110;2022-11-14T09:30:14;56.47;;;31.90;;
28822;SDS011;15961;54.678;9.110;2022-11-14T09:32:39;54.72;;;33.00;;
28822;SDS011;15961;54.678;9.110;2022-11-14T09:35:05;58.55;;;33.35;;
28822;SDS011;15961;54.678;9.110;2022-11-14T09:37:31;52.38;;;32.83;;
28822;SDS011;15961;54.678;9.110;2022-11-14T09:39:56;58.30;;;32.20;;
28822;SDS011;15961;54.678;9.110;2022-11-14T09:42:31;56.72;;;32.92;;
28822;SDS011;15961;54.678;9.110;2022-11-14T09:47:42;53.80;;;31.33;;
28822;SDS011;15961;54.678;9.110;2022-11-14T09:50:32;56.60;;;34.22;;
28822;SDS011;15961;54.678;9.110;2022-11-14T09:53:08;59.38;;;34.33;;
28822;SDS011;15961;54.678;9.110;2022-11-14T09:55:39;56.75;;;33.80;;
28822;SDS011;15961;54.678;9.110;2022-11-14T09:58:05;57.72;;;34.00;;
28822;SDS011;15961;54.678;9.110;2022-11-14T10:00:43;58.63;;;35.97;;
28822;SDS011;15961;54.678;9.110;2022-11-14T10:06:18;55.38;;;33.45;;
28822;SDS011;15961;54.678;9.110;2022-11-14T10:09:24;65.40;;;34.85;;
28822;SDS011;15961;54.678;9.110;2022-11-14T10:12:12;60.28;;;34.45;;
28822;SDS011;15961;54.678;9.110;2022-11-14T10:17:26;58.45;;;35.13;;
28822;SDS011;15961;54.678;9.110;2022-11-14T10:23:06;53.03;;;32.25;;
28822;SDS011;15961;54.678;9.110;2022-11-14T10:25:52;64.32;;;35.40;;
28822;SDS011;15961;54.678;9.110;2022-11-14T10:28:32;58.35;;;33.33;;
28822;SDS011;15961;54.678;9.110;2022-11-14T10:33:48;60.67;;;35.28;;
28822;SDS011;15961;54.678;9.110;2022-11-14T10:38:59;66.30;;;34.08;;
28822;SDS011;15961;54.678;9.110;2022-11-14T10:41:31;62.58;;;34.38;;
28822;SDS011;15961;54.678;9.110;2022-11-14T10:43:58;61.28;;;35.85;;
28822;SDS011;15961;54.678;9.110;2022-11-14T10:46:28;56.13;;;32.70;;
28822;SDS011;15961;54.678;9.110;2022-11-14T10:48:59;56.88;;;33.05;;
28822;SDS011;15961;54.678;9.110;2022-11-14T10:56:27;61.63;;;33.55;;
28822;SDS011;15961;54.678;9.110;2022-11-14T10:58:53;66.72;;;36.33;;
28822;SDS011;15961;54.678;9.110;2022-11-14T11:01:39;64.82;;;34.92;;
28822;SDS011;15961;54.678;9.110;2022-11-14T11:04:12;64.65;;;35.40;;
28822;SDS011;15961;54.678;9.110;2022-11-14T11:06:42;66.85;;;36.53;;
28822;SDS011;15961;54.678;9.110;2022-11-14T11:09:15;68.78;;;36.83;;
28822;SDS011;15961;54.678;9.110;2022-11-14T11:12:02;66.13;;;38.17;;
28822;SDS011;15961;54.678;9.110;2022-11-14T11:14:30;72.05;;;38.53;;
28822;SDS011;15961;54.678;9.110;2022-11-14T11:19:37;73.15;;;38.60;;
28822;SDS011;15961;54.678;9.110;2022-11-14T11:22:03;63.00;;;36.63;;
28822;SDS011;15961;54.678;9.110;2022-11-14T11:24:33;76.53;;;37.13;;
28822;SDS011;15961;54.678;9.110;2022-11-14T11:27:11;72.15;;;37.15;;
28822;SDS011;15961;54.678;9.110;2022-11-14T11:29:37;66.40;;;36.20;;
28822;SDS011;15961;54.678;9.110;2022-11-14T11:32:02;63.25;;;35.17;;
28822;SDS011;15961;54.678;9.110;2022-11-14T11:34:30;73.40;;;38.03;;
28822;SDS011;15961;54.678;9.110;2022-11-14T11:37:11;64.78;;;36.88;;
28822;SDS011;15961;54.678;9.110;2022-11-14T11:39:48;70.55;;;38.60;;
28822;SDS011;15961;54.678;9.110;2022-11-14T11:42:19;71.05;;;37.83;;
28822;SDS011;15961;54.678;9.110;2022-11-14T11:44:59;75.47;;;39.85;;
28822;SDS011;15961;54.678;9.110;2022-11-14T11:47:28;66.88;;;37.35;;
28822;SDS011;15961;54.678;9.110;2022-11-14T11:49:57;66.60;;;37.20;;
28822;SDS011;15961;54.678;9.110;2022-11-14T11:52:31;69.75;;;38.80;;
28822;SDS011;15961;54.678;9.110;2022-11-14T11:57:34;66.63;;;38.63;;
28822;SDS011;15961;54.678;9.110;2022-11-14T12:00:13;72.60;;;40.40;;
28822;SDS011;15961;54.678;9.110;2022-11-14T12:02:43;69.20;;;40.10;;
28822;SDS011;15961;54.678;9.110;2022-11-14T12:13:54;70.57;;;37.13;;
28822;SDS011;15961;54.678;9.110;2022-11-14T12:19:36;65.50;;;38.15;;
28822;SDS011;15961;54.678;9.110;2022-11-14T12:30:54;67.05;;;36.88;;
28822;SDS011;15961;54.678;9.110;2022-11-14T12:33:25;68.28;;;38.35;;
28822;SDS011;15961;54.678;9.110;2022-11-14T12:36:00;86.75;;;39.13;;
28822;SDS011;15961;54.678;9.110;2022-11-14T12:38:33;76.50;;;40.90;;
28822;SDS011;15961;54.678;9.110;2022-11-14T12:41:07;75.00;;;38.17;;
28822;SDS011;15961;54.678;9.110;2022-11-14T12:46:02;74.38;;;40.97;;
28822;SDS011;15961;54.678;9.110;2022-11-14T12:48:34;80.95;;;40.95;;
28822;SDS011;15961;54.678;9.110;2022-11-14T12:51:02;74.40;;;38.90;;
28822;SDS011;15961;54.678;9.110;2022-11-14T12:58:46;80.50;;;41.53;;
28822;SDS011;15961;54.678;9.110;2022-11-14T13:06:32;80.55;;;43.25;;
28822;SDS011;15961;54.678;9.110;2022-11-14T13:11:54;73.18;;;39.80;;
28822;SDS011;15961;54.678;9.110;2022-11-14T13:17:36;75.15;;;39.08;;
28822;SDS011;15961;54.678;9.110;2022-11-14T13:23:05;77.93;;;40.53;;
28822;SDS011;15961;54.678;9.110;2022-11-14T13:26:34;73.07;;;38.42;;
28822;SDS011;15961;54.678;9.110;2022-11-14T13:28:42;75.82;;;40.75;;
28822;SDS011;15961;54.678;9.110;2022-11-14T13:33:41;82.80;;;42.30;;
28822;SDS011;15961;54.678;9.110;2022-11-14T13:36:10;83.38;;;40.78;;
28822;SDS011;15961;54.678;9.110;2022-11-14T13:38:50;78.28;;;41.42;;
28822;SDS011;15961;54.678;9.110;2022-11-14T13:41:49;77.03;;;41.38;;
28822;SDS011;15961;54.678;9.110;2022-11-14T13:44:33;82.20;;;41.30;;
28822;SDS011;15961;54.678;9.110;2022-11-14T13:50:02;82.03;;;40.10;;
28822;SDS011;15961;54.678;9.110;2022-11-14T13:52:30;77.65;;;39.53;;
28822;SDS011;15961;54.678;9.110;2022-11-14T13:54:57;82.32;;;39.80;;
28822;SDS011;15961;54.678;9.110;2022-11-14T14:00:15;81.88;;;41.42;;
28822;SDS011;15961;54.678;9.110;2022-11-14T14:02:56;85.07;;;42.53;;
28822;SDS011;15961;54.678;9.110;2022-11-14T14:11:05;82.10;;;42.55;;
28822;SDS011;15961;54.678;9.110;2022-11-14T14:16:38;77.78;;;41.78;;
28822;SDS011;15961;54.678;9.110;2022-11-14T14:19:36;79.97;;;41.83;;
28822;SDS011;15961;54.678;9.110;2022-11-14T14:25:14;82.72;;;41.35;;
28822;SDS011;15961;54.678;9.110;2022-11-14T14:30:23;81.32;;;42.45;;
28822;SDS011;15961;54.678;9.110;2022-11-14T14:35:29;81.70;;;42.03;;
28822;SDS011;15961;54.678;9.110;2022-11-14T14:37:56;80.90;;;42.20;;
28822;SDS011;15961;54.678;9.110;2022-11-14T14:42:53;84.80;;;44.33;;
28822;SDS011;15961;54.678;9.110;2022-11-14T14:45:21;80.78;;;41.50;;
28822;SDS011;15961;54.678;9.110;2022-11-14T14:47:49;88.07;;;43.22;;
28822;SDS011;15961;54.678;9.110;2022-11-14T14:51:09;79.45;;;41.53;;
28822;SDS011;15961;54.678;9.110;2022-11-14T14:53:49;81.45;;;42.70;;
28822;SDS011;15961;54.678;9.110;2022-11-14T14:56:18;82.07;;;39.95;;
28822;SDS011;15961;54.678;9.110;2022-11-14T14:58:45;83.18;;;42.97;;
28822;SDS011;15961;54.678;9.110;2022-11-14T15:01:12;89.25;;;43.38;;
28822;SDS011;15961;54.678;9.110;2022-11-14T15:03:39;94.25;;;46.53;;
28822;SDS011;15961;54.678;9.110;2022-11-14T15:06:53;92.10;;;45.20;;
28822;SDS011;15961;54.678;9.110;2022-11-14T15:08:55;92.68;;;44.28;;
28822;SDS011;15961;54.678;9.110;2022-11-14T15:11:41;86.82;;;42.42;;
28822;SDS011;15961;54.678;9.110;2022-11-14T15:14:11;88.10;;;43.40;;
28822;SDS011;15961;54.678;9.110;2022-11-14T15:16:39;88.40;;;42.60;;
28822;SDS011;15961;54.678;9.110;2022-11-14T15:19:05;78.97;;;40.53;;
28822;SDS011;15961;54.678;9.110;2022-11-14T15:21:37;92.88;;;43.42;;
28822;SDS011;15961;54.678;9.110;2022-11-14T15:26:42;89.80;;;42.08;;
28822;SDS011;15961;54.678;9.110;2022-11-14T15:31:44;78.25;;;38.20;;
28822;SDS011;15961;54.678;9.110;2022-11-14T15:35:01;79.03;;;40.50;;
28822;SDS011;15961;54.678;9.110;2022-11-14T15:39:40;91.07;;;43.83;;
28822;SDS011;15961;54.678;9.110;2022-11-14T15:44:47;97.75;;;43.55;;
28822;SDS011;15961;54.678;9.110;2022-11-14T15:50:04;110.80;;;47.83;;
28822;SDS011;15961;54.678;9.110;2022-11-14T15:53:05;114.43;;;49.83;;
28822;SDS011;15961;54.678;9.110;2022-11-14T15:55:44;104.60;;;47.28;;
28822;SDS011;15961;54.678;9.110;2022-11-14T15:58:10;106.75;;;49.88;;
28822;SDS011;15961;54.678;9.110;2022-11-14T16:00:38;118.72;;;51.78;;
28822;SDS011;15961;54.678;9.110;2022-11-14T16:05:36;116.15;;;51.03;;
28822;SDS011;15961;54.678;9.110;2022-11-14T16:08:01;123.50;;;52.72;;
28822;SDS011;15961;54.678;9.110;2022-11-14T16:10:27;123.47;;;53.78;;
28822;SDS011;15961;54.678;9.110;2022-11-14T16:12:53;136.63;;;53.65;;
28822;SDS011;15961;54.678;9.110;2022-11-14T16:15:18;129.57;;;56.63;;
28822;SDS011;15961;54.678;9.110;2022-11-14T16:17:45;135.18;;;54.40;;
28822;SDS011;15961;54.678;9.110;2022-11-14T16:20:13;145.48;;;55.95;;
28822;SDS011;15961;54.678;9.110;2022-11-14T16:22:42;130.07;;;55.65;;
28822;SDS011;15961;54.678;9.110;2022-11-14T16:28:05;148.82;;;54.85;;
28822;SDS011;15961;54.678;9.110;2022-11-14T16:30:31;117.88;;;53.53;;
28822;SDS011;15961;54.678;9.110;2022-11-14T16:32:57;135.05;;;54.92;;
28822;SDS011;15961;54.678;9.110;2022-11-14T16:35:26;134.35;;;56.85;;